createdAt,value
2022-08-03T00:02:21.705Z,100545.50
2022-08-03T00:04:49.780Z,100544.84
2022-08-03T00:07:17.970Z,100544.72
2022-08-03T00:09:46.029Z,100547.13
2022-08-03T00:12:15.745Z,100549.16
2022-08-03T00:14:43.897Z,100546.69
2022-08-03T00:17:12.113Z,100547.88
2022-08-03T00:19:40.054Z,100543.53
2022-08-03T00:22:08.085Z,100540.41
2022-08-03T00:24:36.359Z,100535.22
2022-08-03T00:27:04.489Z,100533.56
2022-08-03T00:29:33.877Z,100531.06
2022-08-03T00:32:23.387Z,100535.59
2022-08-03T00:34:58.504Z,100534.94
2022-08-03T00:37:40.677Z,100528.94
2022-08-03T00:40:13.367Z,100532.81
2022-08-03T00:42:51.689Z,100537.22
2022-08-03T00:45:22.328Z,100538.41
2022-08-03T00:47:50.392Z,100535.94
2022-08-03T00:50:19.783Z,100531.78
2022-08-03T00:52:48.563Z,100536.50
2022-08-03T00:55:19.153Z,100536.03
2022-08-03T00:57:47.898Z,100537.41
2022-08-03T01:00:19.842Z,100531.41
2022-08-03T01:02:49.650Z,100527.59
2022-08-03T01:05:17.746Z,100534.81
2022-08-03T01:07:59.689Z,100527.78
2022-08-03T01:15:18.944Z,100527.56
2022-08-03T01:22:41.454Z,100527.44
2022-08-03T01:25:25.537Z,100519.13
2022-08-03T01:28:03.528Z,100527.50
2022-08-03T01:30:36.235Z,100528.50
2022-08-03T01:33:07.252Z,100529.53
2022-08-03T01:35:40.469Z,100525.19
2022-08-03T01:38:16.131Z,100527.56
2022-08-03T01:40:48.032Z,100521.19
2022-08-03T01:44:27.043Z,100519.53
2022-08-03T01:46:09.830Z,100523.41
2022-08-03T01:48:40.885Z,100520.44
2022-08-03T01:51:11.729Z,100521.63
2022-08-03T01:53:43.340Z,100518.31
2022-08-03T01:56:11.999Z,100512.97
2022-08-03T01:58:43.149Z,100520.03
2022-08-03T02:01:14.155Z,100524.53
2022-08-03T02:03:59.879Z,100522.72
2022-08-03T02:07:00.056Z,100513.84
2022-08-03T02:09:23.122Z,100511.72
2022-08-03T02:11:52.987Z,100505.72
2022-08-03T02:14:22.145Z,100507.38
2022-08-03T02:16:52.748Z,100510.06
2022-08-03T02:19:25.959Z,100511.06
2022-08-03T02:22:01.315Z,100512.25
2022-08-03T02:24:30.421Z,100503.75
2022-08-03T02:27:00.118Z,100505.59
2022-08-03T02:29:39.476Z,100504.28
2022-08-03T02:32:17.027Z,100503.63
2022-08-03T02:34:50.023Z,100499.94
2022-08-03T02:37:20.441Z,100507.47
2022-08-03T02:39:52.070Z,100507.66
2022-08-03T02:42:23.196Z,100510.03
2022-08-03T02:44:56.387Z,100508.53
2022-08-03T02:47:28.837Z,100510.88
2022-08-03T02:50:18.467Z,100517.56
2022-08-03T02:52:48.441Z,100514.25
2022-08-03T02:55:18.956Z,100509.63
2022-08-03T02:57:48.463Z,100511.16
2022-08-03T03:00:28.089Z,100507.63
2022-08-03T03:03:00.419Z,100507.31
2022-08-03T03:05:53.716Z,100514.53
2022-08-03T03:08:20.685Z,100509.84
2022-08-03T03:10:53.312Z,100515.56
2022-08-03T03:13:24.231Z,100513.69
2022-08-03T03:15:53.575Z,100516.38
2022-08-03T03:18:23.894Z,100515.06
2022-08-03T03:20:54.076Z,100520.09
2022-08-03T03:23:23.400Z,100512.88
2022-08-03T03:25:52.677Z,100512.59
2022-08-03T03:28:23.396Z,100514.59
2022-08-03T03:30:55.083Z,100516.63
2022-08-03T03:33:24.643Z,100516.63
2022-08-03T03:35:52.950Z,100515.81
2022-08-03T03:38:21.413Z,100519.94
2022-08-03T03:40:50.207Z,100517.47
2022-08-03T03:43:18.828Z,100516.44
2022-08-03T03:45:48.522Z,100516.44
2022-08-03T03:48:16.993Z,100522.81
2022-08-03T03:50:50.865Z,100522.81
2022-08-03T03:53:18.927Z,100521.31
2022-08-03T03:55:59.254Z,100519.47
2022-08-03T03:58:32.289Z,100527.69
2022-08-03T04:01:00.913Z,100518.19
2022-08-03T04:03:29.257Z,100520.69
2022-08-03T04:06:17.426Z,100522.72
2022-08-03T04:09:03.636Z,100515.88
2022-08-03T04:11:39.150Z,100515.22
2022-08-03T04:14:11.757Z,100520.88
2022-08-03T04:16:44.385Z,100522.38
2022-08-03T04:19:23.265Z,100517.03
2022-08-03T04:21:57.490Z,100519.56
2022-08-03T04:24:28.073Z,100515.22
2022-08-03T04:27:00.384Z,100519.59
2022-08-03T04:29:30.462Z,100515.91
2022-08-03T04:32:00.965Z,100519.22
2022-08-03T04:34:31.783Z,100525.41
2022-08-03T04:37:12.120Z,100521.38
2022-08-03T04:39:43.072Z,100524.38
2022-08-03T04:42:13.790Z,100529.72
2022-08-03T04:44:43.696Z,100521.88
2022-08-03T04:47:11.793Z,100528.50
2022-08-03T04:49:44.889Z,100522.63
2022-08-03T04:52:14.756Z,100530.50
2022-08-03T04:54:45.887Z,100524.63
2022-08-03T04:57:23.119Z,100531.09
2022-08-03T05:00:02.234Z,100525.06
2022-08-03T05:02:32.146Z,100535.06
2022-08-03T05:05:00.794Z,100533.25
2022-08-03T05:07:36.083Z,100541.38
2022-08-03T05:10:14.712Z,100543.72
2022-08-03T05:12:43.457Z,100540.72
2022-08-03T05:15:12.097Z,100542.00
2022-08-03T05:17:40.131Z,100546.00
2022-08-03T05:20:09.331Z,100545.47
2022-08-03T05:22:38.705Z,100548.63
2022-08-03T05:25:07.133Z,100555.09
2022-08-03T05:27:35.177Z,100549.06
2022-08-03T05:30:29.819Z,100548.91
2022-08-03T05:32:51.198Z,100550.88
2022-08-03T05:36:00.766Z,100549.84
2022-08-03T05:38:09.314Z,100552.84
2022-08-03T05:40:37.442Z,100556.63
2022-08-03T05:43:09.969Z,100551.59
2022-08-03T05:45:38.684Z,100552.72
2022-08-03T05:48:06.981Z,100547.47
2022-08-03T05:50:39.862Z,100548.09
2022-08-03T05:53:12.094Z,100549.31
2022-08-03T05:55:40.041Z,100554.63
2022-08-03T05:58:07.925Z,100551.03
2022-08-03T06:00:36.120Z,100546.28
2022-08-03T06:03:04.005Z,100558.19
2022-08-03T06:05:36.375Z,100554.78
2022-08-03T06:08:15.429Z,100556.56
2022-08-03T06:10:43.695Z,100553.78
2022-08-03T06:13:13.634Z,100556.19
2022-08-03T06:15:41.789Z,100556.94
2022-08-03T06:18:09.721Z,100556.66
2022-08-03T06:20:37.656Z,100549.56
2022-08-03T06:23:05.582Z,100555.66
2022-08-03T06:25:36.883Z,100556.34
2022-08-03T06:28:05.254Z,100559.13
2022-08-03T06:30:33.300Z,100557.19
2022-08-03T06:33:01.151Z,100553.38
2022-08-03T06:35:29.313Z,100543.53
2022-08-03T06:37:57.211Z,100554.16
2022-08-03T06:40:31.046Z,100559.44
2022-08-03T06:43:03.969Z,100558.28
2022-08-03T06:45:32.309Z,100553.63
2022-08-03T06:48:04.885Z,100544.63
2022-08-03T06:50:33.059Z,100554.19
2022-08-03T06:53:01.857Z,100548.69
2022-08-03T06:55:30.028Z,100545.88
2022-08-03T06:57:59.754Z,100551.09
2022-08-03T07:00:32.610Z,100559.00
2022-08-03T07:03:00.516Z,100556.16
2022-08-03T07:05:28.792Z,100554.84
2022-08-03T07:07:57.707Z,100548.31
2022-08-03T07:10:27.611Z,100559.72
2022-08-03T07:12:56.787Z,100560.41
2022-08-03T07:15:54.247Z,100559.28
2022-08-03T07:18:16.582Z,100566.38
2022-08-03T07:20:44.690Z,100559.16
2022-08-03T07:23:19.200Z,100573.50
2022-08-03T07:25:47.557Z,100562.56
2022-08-03T07:28:15.489Z,100559.69
2022-08-03T07:30:43.518Z,100561.59
2022-08-03T07:33:11.568Z,100561.22
2022-08-03T07:35:40.965Z,100562.47
2022-08-03T07:38:09.047Z,100552.56
2022-08-03T07:40:37.067Z,100560.81
2022-08-03T07:43:05.082Z,100555.06
2022-08-03T07:45:33.349Z,100552.63
2022-08-03T07:48:07.601Z,100559.91
2022-08-03T07:50:41.893Z,100557.19
2022-08-03T07:53:09.959Z,100551.22
2022-08-03T07:55:38.501Z,100548.06
2022-08-03T07:58:09.688Z,100555.94
2022-08-03T08:00:37.960Z,100550.56
2022-08-03T08:03:06.136Z,100543.31
2022-08-03T08:05:34.826Z,100548.88
2022-08-03T08:08:04.809Z,100541.19
2022-08-03T08:10:33.754Z,100535.38
2022-08-03T08:13:02.758Z,100539.47
2022-08-03T08:15:33.069Z,100539.44
2022-08-03T08:18:02.546Z,100534.16
2022-08-03T08:20:34.967Z,100539.50
2022-08-03T08:23:34.505Z,100538.97
2022-08-03T08:25:57.562Z,100536.63
2022-08-03T08:28:32.191Z,100534.53
2022-08-03T08:31:01.740Z,100535.91
2022-08-03T08:36:18.383Z,100529.47
2022-08-03T08:38:47.902Z,100531.00
2022-08-03T08:41:18.364Z,100528.88
2022-08-03T08:43:46.279Z,100525.47
2022-08-03T08:46:23.325Z,100534.19
2022-08-03T08:48:53.447Z,100528.13
2022-08-03T08:51:23.276Z,100527.50
2022-08-03T08:53:54.216Z,100534.09
2022-08-03T08:56:25.464Z,100527.56
2022-08-03T08:59:02.738Z,100530.56
2022-08-03T09:01:31.858Z,100524.19
2022-08-03T09:04:02.516Z,100525.56
2022-08-03T09:06:33.446Z,100521.09
2022-08-03T09:09:02.802Z,100524.75
2022-08-03T09:12:01.003Z,100522.47
2022-08-03T09:14:39.146Z,100521.06
2022-08-03T09:17:08.827Z,100522.88
2022-08-03T09:20:04.413Z,100515.84
2022-08-03T09:22:34.387Z,100503.97
2022-08-03T09:25:23.989Z,100511.59
2022-08-03T09:27:55.050Z,100508.06
2022-08-03T09:30:33.930Z,100513.28
2022-08-03T09:33:03.197Z,100508.91
2022-08-03T09:38:23.966Z,100514.88
2022-08-03T09:40:59.192Z,100502.50
2022-08-03T09:43:47.490Z,100499.44
2022-08-03T09:46:15.554Z,100505.88
2022-08-03T09:48:43.587Z,100503.53
2022-08-03T09:51:32.975Z,100497.16
2022-08-03T09:54:12.654Z,100491.94
2022-08-03T09:56:48.086Z,100494.53
2022-08-03T09:59:26.120Z,100496.53
2022-08-03T10:01:54.917Z,100492.03
2022-08-03T10:04:23.542Z,100499.44
2022-08-03T10:07:05.390Z,100500.16
2022-08-03T10:09:33.875Z,100492.00
2022-08-03T10:12:13.944Z,100496.72
2022-08-03T10:14:45.501Z,100491.47
2022-08-03T10:17:13.786Z,100485.78
2022-08-03T10:19:42.098Z,100485.91
2022-08-03T10:22:14.328Z,100477.09
2022-08-03T10:24:51.157Z,100473.75
2022-08-03T10:27:21.628Z,100474.13
2022-08-03T10:29:54.648Z,100462.28
2022-08-03T10:32:28.877Z,100472.66
2022-08-03T10:35:19.537Z,100462.59
2022-08-03T10:37:59.140Z,100464.13
2022-08-03T10:40:48.122Z,100453.91
2022-08-03T10:43:22.881Z,100452.22
2022-08-03T10:45:52.191Z,100455.47
2022-08-03T10:48:21.698Z,100452.41
2022-08-03T10:50:51.113Z,100455.59
2022-08-03T10:53:36.400Z,100439.16
2022-08-03T10:56:35.364Z,100443.88
2022-08-03T10:59:12.393Z,100434.88
2022-08-03T11:02:00.802Z,100428.72
2022-08-03T11:04:30.730Z,100426.81
2022-08-03T11:07:23.190Z,100422.75
2022-08-03T11:09:55.350Z,100430.47
2022-08-03T11:12:30.744Z,100422.06
2022-08-03T11:15:05.554Z,100428.38
2022-08-03T11:17:45.905Z,100420.81
2022-08-03T11:20:45.557Z,100409.75
2022-08-03T11:23:13.857Z,100409.03
2022-08-03T11:26:13.458Z,100407.19
2022-08-03T11:28:46.316Z,100414.59
2022-08-03T11:31:50.911Z,100413.91
2022-08-03T11:34:19.650Z,100407.72
2022-08-03T11:37:31.380Z,100404.50
2022-08-03T11:40:02.898Z,100406.78
2022-08-03T11:42:48.194Z,100398.63
2022-08-03T11:45:16.741Z,100398.47
2022-08-03T11:47:50.509Z,100397.69
2022-08-03T11:50:22.026Z,100402.09
2022-08-03T11:52:52.664Z,100395.81
2022-08-03T11:55:22.815Z,100394.50
2022-08-03T11:59:01.028Z,100391.25
2022-08-03T12:00:41.414Z,100396.19
2022-08-03T12:03:16.205Z,100382.59
2022-08-03T12:05:51.129Z,100394.63
2022-08-03T12:08:31.914Z,100384.84
2022-08-03T12:11:01.592Z,100378.84
2022-08-03T12:14:45.642Z,100370.09
2022-08-03T12:16:29.653Z,100374.50
2022-08-03T12:19:00.651Z,100368.56
2022-08-03T12:21:29.441Z,100369.38
2022-08-03T12:24:01.685Z,100365.28
2022-08-03T12:26:45.004Z,100364.72
2022-08-03T12:29:27.536Z,100363.63
2022-08-03T12:31:58.544Z,100357.91
2022-08-03T12:34:47.409Z,100352.16
2022-08-03T12:37:22.634Z,100356.22
2022-08-03T12:40:02.490Z,100352.91
2022-08-03T12:42:35.069Z,100356.97
2022-08-03T12:45:21.344Z,100352.06
2022-08-03T12:47:54.285Z,100354.25
2022-08-03T12:50:28.608Z,100354.44
2022-08-03T12:52:57.057Z,100353.56
2022-08-03T12:55:57.822Z,100354.91
2022-08-03T12:58:33.486Z,100345.47
2022-08-03T13:01:05.258Z,100353.41
2022-08-03T13:03:43.637Z,100352.28
2022-08-03T13:06:20.460Z,100358.00
2022-08-03T13:08:49.539Z,100350.56
2022-08-03T13:11:55.619Z,100343.09
2022-08-03T13:14:13.614Z,100352.63
2022-08-03T13:16:49.120Z,100339.50
2022-08-03T13:19:17.377Z,100336.38
2022-08-03T13:21:53.578Z,100336.00
2022-08-03T13:24:32.368Z,100332.16
2022-08-03T13:27:00.387Z,100330.69
2022-08-03T13:29:28.431Z,100334.13
2022-08-03T13:31:56.539Z,100324.91
2022-08-03T13:34:24.597Z,100318.97
2022-08-03T13:37:09.092Z,100319.63
2022-08-03T13:39:58.323Z,100328.50
2022-08-03T13:42:26.706Z,100319.47
2022-08-03T13:44:54.753Z,100306.63
2022-08-03T13:47:23.089Z,100311.41
2022-08-03T13:49:56.979Z,100304.66
2022-08-03T13:52:30.855Z,100297.53
2022-08-03T13:54:59.944Z,100296.00
2022-08-03T13:58:03.294Z,100296.34
2022-08-03T14:00:27.821Z,100291.75
2022-08-03T14:03:16.377Z,100288.22
2022-08-03T14:05:48.124Z,100281.59
2022-08-03T14:08:18.181Z,100287.19
2022-08-03T14:10:48.610Z,100282.63
2022-08-03T14:13:16.782Z,100282.97
2022-08-03T14:15:50.018Z,100285.28
2022-08-03T14:18:28.622Z,100282.53
2022-08-03T14:21:07.015Z,100279.78
2022-08-03T14:23:38.459Z,100278.31
2022-08-03T14:26:07.674Z,100274.53
2022-08-03T14:28:36.145Z,100270.41
2022-08-03T14:31:15.250Z,100269.25
2022-08-03T14:33:53.337Z,100271.31
2022-08-03T14:36:21.259Z,100267.19
2022-08-03T14:38:50.925Z,100254.34
2022-08-03T14:41:20.352Z,100252.97
2022-08-03T14:44:01.263Z,100258.03
2022-08-03T14:46:31.320Z,100244.50
2022-08-03T14:50:28.430Z,100250.50
2022-08-03T14:51:51.602Z,100250.72
2022-08-03T14:54:25.748Z,100247.41
2022-08-03T14:56:53.705Z,100241.78
2022-08-03T14:59:22.002Z,100242.19
2022-08-03T15:02:02.978Z,100229.59
2022-08-03T15:04:34.784Z,100234.19
2022-08-03T15:07:02.675Z,100233.88
2022-08-03T15:09:34.590Z,100230.13
2022-08-03T15:12:02.614Z,100223.59
2022-08-03T15:14:33.397Z,100226.53
2022-08-03T15:17:03.042Z,100224.06
2022-08-03T15:20:03.681Z,100228.84
2022-08-03T15:22:25.141Z,100218.28
2022-08-03T15:24:56.187Z,100215.00
2022-08-03T15:27:24.241Z,100210.53
2022-08-03T15:30:08.730Z,100204.56
2022-08-03T15:32:39.726Z,100206.22
2022-08-03T15:35:08.226Z,100198.72
2022-08-03T15:37:36.149Z,100205.75
2022-08-03T15:40:06.822Z,100193.31
2022-08-03T15:42:35.582Z,100184.88
2022-08-03T15:45:03.609Z,100194.25
2022-08-03T15:47:31.634Z,100189.59
2022-08-03T15:49:59.791Z,100194.50
2022-08-03T15:52:28.811Z,100187.69
2022-08-03T15:54:56.859Z,100187.63
2022-08-03T15:57:26.151Z,100176.13
2022-08-03T15:59:54.188Z,100160.97
2022-08-03T16:02:22.280Z,100157.94
2022-08-03T16:04:53.716Z,100165.53
2022-08-03T16:07:42.062Z,100145.25
2022-08-03T16:10:30.642Z,100152.38
2022-08-03T16:13:00.652Z,100139.81
2022-08-03T16:15:31.132Z,100144.44
2022-08-03T16:17:59.877Z,100145.25
2022-08-03T16:20:30.896Z,100147.47
2022-08-03T16:23:10.448Z,100145.22
2022-08-03T16:25:39.300Z,100140.09
2022-08-03T16:28:13.741Z,100137.59
2022-08-03T16:30:44.205Z,100138.03
2022-08-03T16:33:17.860Z,100138.94
2022-08-03T16:35:46.947Z,100135.25
2022-08-03T16:38:18.763Z,100136.38
2022-08-03T16:40:51.459Z,100130.53
2022-08-03T16:43:23.128Z,100137.69
2022-08-03T16:45:51.777Z,100127.84
2022-08-03T16:48:22.654Z,100133.53
2022-08-03T16:50:50.724Z,100130.97
2022-08-03T16:53:33.541Z,100128.19
2022-08-03T16:56:10.091Z,100129.94
2022-08-03T16:58:42.405Z,100123.13
2022-08-03T17:01:24.111Z,100128.84
2022-08-03T17:04:02.444Z,100123.72
2022-08-03T17:06:35.203Z,100124.81
2022-08-03T17:09:09.219Z,100122.97
2022-08-03T17:11:43.893Z,100122.09
2022-08-03T17:14:17.106Z,100126.34
2022-08-03T17:16:53.075Z,100120.97
2022-08-03T17:19:24.490Z,100128.41
2022-08-03T17:22:04.186Z,100130.25
2022-08-03T17:24:35.064Z,100128.97
2022-08-03T17:27:08.598Z,100126.03
2022-08-03T17:29:45.299Z,100124.56
2022-08-03T17:32:18.389Z,100129.91
2022-08-03T17:34:51.087Z,100124.25
2022-08-03T17:37:50.673Z,100129.47
2022-08-03T17:40:17.286Z,100130.41
2022-08-03T17:42:50.448Z,100122.34
2022-08-03T17:45:21.045Z,100132.25
2022-08-03T17:47:57.420Z,100138.56
2022-08-03T17:50:35.723Z,100130.22
2022-08-03T17:53:15.195Z,100131.41
2022-08-03T17:55:58.979Z,100133.50
2022-08-03T17:58:39.781Z,100140.88
2022-08-03T18:02:06.278Z,100139.13
2022-08-03T18:04:29.669Z,100146.66
2022-08-03T18:07:00.406Z,100144.38
2022-08-03T18:10:03.526Z,100148.56
2022-08-03T18:12:41.482Z,100144.53
2022-08-03T18:15:21.248Z,100145.25
2022-08-03T18:18:02.061Z,100148.69
2022-08-03T18:20:41.187Z,100152.13
2022-08-03T18:23:25.139Z,100148.66
2022-08-03T18:26:00.838Z,100145.72
2022-08-03T18:28:29.566Z,100157.72
2022-08-03T18:30:58.479Z,100155.94
2022-08-03T18:34:18.525Z,100157.69
2022-08-03T18:36:21.989Z,100162.47
2022-08-03T18:39:01.669Z,100162.84
2022-08-03T18:41:33.714Z,100160.47
2022-08-03T18:44:09.237Z,100171.19
2022-08-03T18:47:15.945Z,100173.44
2022-08-03T18:50:04.805Z,100164.72
2022-08-03T18:52:46.030Z,100168.53
2022-08-03T18:55:33.469Z,100168.78
2022-08-03T18:58:15.774Z,100177.50
2022-08-03T19:00:55.053Z,100166.56
2022-08-03T19:03:42.998Z,100176.03
2022-08-03T19:06:20.455Z,100171.91
2022-08-03T19:08:55.507Z,100176.50
2022-08-03T19:12:14.559Z,100173.72
2022-08-03T19:14:28.800Z,100172.78
2022-08-03T19:17:06.173Z,100186.31
2022-08-03T19:19:44.055Z,100181.59
2022-08-03T19:22:16.277Z,100187.75
2022-08-03T19:24:46.515Z,100189.28
2022-08-03T19:27:16.056Z,100195.44
2022-08-03T19:29:58.464Z,100192.63
2022-08-03T19:32:29.820Z,100187.06
2022-08-03T19:35:01.792Z,100193.72
2022-08-03T19:37:38.699Z,100193.03
2022-08-03T19:40:10.251Z,100201.34
2022-08-03T19:42:41.962Z,100192.53
2022-08-03T19:45:14.421Z,100199.97
2022-08-03T19:47:46.883Z,100208.00
2022-08-03T19:50:16.703Z,100198.91
2022-08-03T19:52:50.407Z,100193.09
2022-08-03T19:55:19.091Z,100201.09
2022-08-03T19:57:49.395Z,100197.69
2022-08-03T20:00:26.176Z,100204.50
2022-08-03T20:02:54.985Z,100200.00
2022-08-03T20:05:26.376Z,100197.69
2022-08-03T20:08:00.516Z,100196.50
2022-08-03T20:10:30.141Z,100200.44
2022-08-03T20:12:58.473Z,100197.88
2022-08-03T20:18:18.205Z,100198.91
2022-08-03T20:20:51.306Z,100196.63
2022-08-03T20:23:21.312Z,100196.44
2022-08-03T20:25:58.193Z,100188.69
2022-08-03T20:28:32.205Z,100195.34
2022-08-03T20:31:01.764Z,100191.38
2022-08-03T20:33:46.039Z,100186.06
2022-08-03T20:36:15.861Z,100193.44
2022-08-03T20:38:48.143Z,100194.88
2022-08-03T20:41:17.148Z,100187.13
2022-08-03T20:43:45.378Z,100191.03
2022-08-03T20:46:31.781Z,100198.47
2022-08-03T20:49:07.742Z,100199.94
2022-08-03T20:51:50.502Z,100197.56
2022-08-03T20:57:17.695Z,100205.00
2022-08-03T20:59:50.241Z,100198.31
2022-08-03T21:02:29.483Z,100206.19
2022-08-03T21:05:03.342Z,100203.84
2022-08-03T21:08:06.470Z,100201.97
2022-08-03T21:10:39.837Z,100202.25
2022-08-03T21:13:03.792Z,100201.00
2022-08-03T21:13:12.468Z,100203.00
2022-08-03T21:13:18.516Z,100204.88
2022-08-03T21:16:12.230Z,100202.25
2022-08-03T21:18:43.646Z,100199.91
2022-08-03T21:21:14.905Z,100198.59
2022-08-03T21:23:48.619Z,100192.81
2022-08-03T21:26:20.718Z,100195.66
2022-08-03T21:28:50.229Z,100198.81
2022-08-03T21:31:23.712Z,100197.84
2022-08-03T21:33:55.824Z,100195.22
2022-08-03T21:36:24.235Z,100194.47
2022-08-03T21:38:56.549Z,100201.41
2022-08-03T21:41:27.166Z,100198.78
2022-08-03T21:43:55.364Z,100199.72
2022-08-03T21:46:23.886Z,100199.81
2022-08-03T21:50:06.894Z,100198.00
2022-08-03T21:51:46.651Z,100195.41
2022-08-03T21:54:14.713Z,100200.44
2022-08-03T21:56:48.692Z,100202.78
2022-08-03T21:59:20.232Z,100198.13
2022-08-03T22:01:55.046Z,100199.81
2022-08-03T22:04:50.048Z,100205.06
2022-08-03T22:07:14.649Z,100200.13
2022-08-03T22:09:51.037Z,100195.41
2022-08-03T22:12:24.044Z,100201.50
2022-08-03T22:15:01.328Z,100200.28
2022-08-03T22:17:54.709Z,100197.44
2022-08-03T22:20:21.364Z,100196.72
2022-08-03T22:22:56.650Z,100201.94
2022-08-03T22:25:32.207Z,100200.72
2022-08-03T22:28:05.137Z,100195.78
2022-08-03T22:30:33.276Z,100197.53
2022-08-03T22:33:11.297Z,100197.13
2022-08-03T22:35:44.455Z,100204.84
2022-08-03T22:38:16.851Z,100202.59
2022-08-03T22:40:45.739Z,100205.06
2022-08-03T22:43:15.260Z,100215.09
2022-08-03T22:46:09.193Z,100202.53
2022-08-03T22:48:35.432Z,100204.66
2022-08-03T22:51:08.828Z,100210.72
2022-08-03T22:53:37.448Z,100209.13
2022-08-03T22:56:06.113Z,100213.53
2022-08-03T22:58:35.369Z,100209.19
2022-08-03T23:01:07.100Z,100205.06
2022-08-03T23:04:01.092Z,100207.16
2022-08-03T23:06:28.412Z,100205.91
2022-08-03T23:08:56.999Z,100220.44
2022-08-03T23:11:25.409Z,100213.63
2022-08-03T23:14:00.157Z,100220.72
2022-08-03T23:16:29.932Z,100217.84
2022-08-03T23:19:00.171Z,100221.59
2022-08-03T23:21:53.705Z,100222.22
2022-08-03T23:24:31.803Z,100217.69
2022-08-03T23:26:59.707Z,100223.28
2022-08-03T23:29:31.390Z,100225.56
2022-08-03T23:32:00.599Z,100224.97
2022-08-03T23:34:46.426Z,100220.22
2022-08-03T23:37:15.785Z,100221.88
2022-08-03T23:39:45.625Z,100224.78
2022-08-03T23:42:16.095Z,100220.44
2022-08-03T23:44:46.006Z,100218.19
2022-08-03T23:49:42.539Z,100216.16
2022-08-03T23:52:16.476Z,100212.00
2022-08-03T23:54:58.237Z,100216.16
2022-08-03T23:57:33.713Z,100217.84
